Terminal Aerodrome Forecast
Issued by NWS

Home | Current Version | Previous Version | Text Only | Print | Product List | Glossary On
Versions: 1 2 3 4 5 6 7 8 9 10 11 12 13 14 15
000
FTUS46 KOTX 171141 CCA
TAFMWH
TAF COR
KMWH 171141Z 1712/1812 16005KT P6SM -RA SCT050 OVC070
     FM171600 18008KT P6SM -RA SCT030 OVC050
     FM172000 19011KT P6SM -RA BKN030 OVC050
     FM180100 22012KT P6SM VCSH SCT050
     FM180900 22014G22KT P6SM SKC=

USA.gov is the U.S. government's official web portal to all federal, state and local government web resources and services.